sensor_id;sensor_type;location;lat;lon;timestamp;pressure;altitude;pressure_sealevel;temperature
65290;BMP180;51893;59.754;10.110;2022-10-19T00:01:56;102789.40;;;3.82
65290;BMP180;51893;59.754;10.110;2022-10-19T00:04:24;102796.00;;;3.70
65290;BMP180;51893;59.754;10.110;2022-10-19T00:06:57;102803.00;;;3.70
65290;BMP180;51893;59.754;10.110;2022-10-19T00:09:26;102796.80;;;3.70
65290;BMP180;51893;59.754;10.110;2022-10-19T00:11:56;102800.40;;;3.58
65290;BMP180;51893;59.754;10.110;2022-10-19T00:14:24;102801.00;;;3.50
65290;BMP180;51893;59.754;10.110;2022-10-19T00:16:52;102813.80;;;3.40
65290;BMP180;51893;59.754;10.110;2022-10-19T00:19:27;102817.80;;;3.40
65290;BMP180;51893;59.754;10.110;2022-10-19T00:21:56;102818.20;;;3.40
65290;BMP180;51893;59.754;10.110;2022-10-19T00:24:25;102820.40;;;3.40
65290;BMP180;51893;59.754;10.110;2022-10-19T00:26:53;102828.00;;;3.50
65290;BMP180;51893;59.754;10.110;2022-10-19T00:29:22;102829.40;;;3.50
65290;BMP180;51893;59.754;10.110;2022-10-19T00:31:57;102832.20;;;3.60
65290;BMP180;51893;59.754;10.110;2022-10-19T00:34:27;102834.40;;;3.52
65290;BMP180;51893;59.754;10.110;2022-10-19T00:36:55;102833.40;;;3.50
65290;BMP180;51893;59.754;10.110;2022-10-19T00:39:24;102835.60;;;3.50
65290;BMP180;51893;59.754;10.110;2022-10-19T00:41:52;102838.00;;;3.54
65290;BMP180;51893;59.754;10.110;2022-10-19T00:47:03;102831.00;;;3.68
65290;BMP180;51893;59.754;10.110;2022-10-19T00:49:39;102837.00;;;3.70
65290;BMP180;51893;59.754;10.110;2022-10-19T00:52:22;102836.40;;;3.70
65290;BMP180;51893;59.754;10.110;2022-10-19T00:54:54;102836.20;;;3.70
65290;BMP180;51893;59.754;10.110;2022-10-19T00:57:29;102836.80;;;3.60
65290;BMP180;51893;59.754;10.110;2022-10-19T01:00:05;102834.40;;;3.60
65290;BMP180;51893;59.754;10.110;2022-10-19T01:02:34;102841.20;;;3.60
65290;BMP180;51893;59.754;10.110;2022-10-19T01:05:04;102838.60;;;3.60
65290;BMP180;51893;59.754;10.110;2022-10-19T01:07:37;102840.00;;;3.70
65290;BMP180;51893;59.754;10.110;2022-10-19T01:10:08;102837.00;;;3.70
65290;BMP180;51893;59.754;10.110;2022-10-19T01:16:03;102847.80;;;3.60
65290;BMP180;51893;59.754;10.110;2022-10-19T01:18:52;102849.00;;;3.50
65290;BMP180;51893;59.754;10.110;2022-10-19T01:22:13;102848.40;;;3.40
65290;BMP180;51893;59.754;10.110;2022-10-19T01:28:52;102858.20;;;3.00
65290;BMP180;51893;59.754;10.110;2022-10-19T01:31:46;102854.40;;;2.90
65290;BMP180;51893;59.754;10.110;2022-10-19T01:40:29;102860.60;;;2.90
65290;BMP180;51893;59.754;10.110;2022-10-19T01:43:09;102860.60;;;2.90
65290;BMP180;51893;59.754;10.110;2022-10-19T01:45:57;102851.80;;;2.90
65290;BMP180;51893;59.754;10.110;2022-10-19T01:48:34;102852.00;;;3.00
65290;BMP180;51893;59.754;10.110;2022-10-19T01:51:15;102850.40;;;2.90
65290;BMP180;51893;59.754;10.110;2022-10-19T01:53:53;102855.80;;;2.88
65290;BMP180;51893;59.754;10.110;2022-10-19T01:56:27;102860.60;;;2.90
65290;BMP180;51893;59.754;10.110;2022-10-19T01:59:03;102862.40;;;2.80
65290;BMP180;51893;59.754;10.110;2022-10-19T02:01:42;102861.60;;;2.80
65290;BMP180;51893;59.754;10.110;2022-10-19T02:04:17;102861.60;;;2.80
65290;BMP180;51893;59.754;10.110;2022-10-19T02:06:50;102864.20;;;2.90
65290;BMP180;51893;59.754;10.110;2022-10-19T02:09:23;102859.20;;;2.90
65290;BMP180;51893;59.754;10.110;2022-10-19T02:11:59;102856.60;;;2.90
65290;BMP180;51893;59.754;10.110;2022-10-19T02:14:42;102852.40;;;2.90
65290;BMP180;51893;59.754;10.110;2022-10-19T02:17:19;102857.80;;;2.90
65290;BMP180;51893;59.754;10.110;2022-10-19T02:19:49;102855.60;;;2.90
65290;BMP180;51893;59.754;10.110;2022-10-19T02:22:20;102852.20;;;2.84
65290;BMP180;51893;59.754;10.110;2022-10-19T02:24:50;102850.60;;;2.88
65290;BMP180;51893;59.754;10.110;2022-10-19T02:27:22;102846.20;;;2.90
65290;BMP180;51893;59.754;10.110;2022-10-19T02:29:52;102835.60;;;2.90
65290;BMP180;51893;59.754;10.110;2022-10-19T02:32:21;102838.00;;;2.90
65290;BMP180;51893;59.754;10.110;2022-10-19T02:34:50;102847.60;;;2.90
65290;BMP180;51893;59.754;10.110;2022-10-19T02:37:19;102853.80;;;2.76
65290;BMP180;51893;59.754;10.110;2022-10-19T02:39:53;102848.00;;;2.70
65290;BMP180;51893;59.754;10.110;2022-10-19T02:45:48;102860.80;;;2.70
65290;BMP180;51893;59.754;10.110;2022-10-19T02:48:23;102866.80;;;2.70
65290;BMP180;51893;59.754;10.110;2022-10-19T02:50:53;102862.80;;;2.70
65290;BMP180;51893;59.754;10.110;2022-10-19T02:53:22;102864.40;;;2.70
65290;BMP180;51893;59.754;10.110;2022-10-19T02:55:50;102868.80;;;2.70
65290;BMP180;51893;59.754;10.110;2022-10-19T02:58:18;102873.80;;;2.70
65290;BMP180;51893;59.754;10.110;2022-10-19T03:00:48;102874.20;;;2.56
65290;BMP180;51893;59.754;10.110;2022-10-19T03:03:20;102879.20;;;2.42
65290;BMP180;51893;59.754;10.110;2022-10-19T03:05:48;102879.00;;;2.40
65290;BMP180;51893;59.754;10.110;2022-10-19T03:08:16;102878.80;;;2.42
65290;BMP180;51893;59.754;10.110;2022-10-19T03:10:44;102877.60;;;2.50
65290;BMP180;51893;59.754;10.110;2022-10-19T03:13:13;102878.60;;;2.52
65290;BMP180;51893;59.754;10.110;2022-10-19T03:15:40;102880.00;;;2.60
65290;BMP180;51893;59.754;10.110;2022-10-19T03:18:09;102884.80;;;2.60
65290;BMP180;51893;59.754;10.110;2022-10-19T03:20:38;102883.60;;;2.40
65290;BMP180;51893;59.754;10.110;2022-10-19T03:23:06;102885.60;;;2.30
65290;BMP180;51893;59.754;10.110;2022-10-19T03:25:36;102883.20;;;2.40
65290;BMP180;51893;59.754;10.110;2022-10-19T03:28:09;102882.80;;;2.40
65290;BMP180;51893;59.754;10.110;2022-10-19T03:30:39;102882.60;;;2.40
65290;BMP180;51893;59.754;10.110;2022-10-19T03:33:08;102887.60;;;2.32
65290;BMP180;51893;59.754;10.110;2022-10-19T03:35:36;102892.60;;;2.30
65290;BMP180;51893;59.754;10.110;2022-10-19T03:38:07;102894.20;;;2.30
65290;BMP180;51893;59.754;10.110;2022-10-19T03:40:40;102893.00;;;2.22
65290;BMP180;51893;59.754;10.110;2022-10-19T03:43:08;102890.80;;;2.22
65290;BMP180;51893;59.754;10.110;2022-10-19T03:45:36;102888.60;;;2.30
65290;BMP180;51893;59.754;10.110;2022-10-19T03:48:06;102888.40;;;2.30
65290;BMP180;51893;59.754;10.110;2022-10-19T03:50:35;102885.00;;;2.40
65290;BMP180;51893;59.754;10.110;2022-10-19T03:53:04;102885.20;;;2.40
65290;BMP180;51893;59.754;10.110;2022-10-19T03:55:33;102892.20;;;2.40
65290;BMP180;51893;59.754;10.110;2022-10-19T03:58:01;102890.80;;;2.40
65290;BMP180;51893;59.754;10.110;2022-10-19T04:00:29;102891.00;;;2.34
65290;BMP180;51893;59.754;10.110;2022-10-19T04:02:57;102891.20;;;2.30
65290;BMP180;51893;59.754;10.110;2022-10-19T04:05:25;102893.20;;;2.20
65290;BMP180;51893;59.754;10.110;2022-10-19T04:07:55;102896.20;;;2.20
65290;BMP180;51893;59.754;10.110;2022-10-19T04:10:24;102897.80;;;2.10
65290;BMP180;51893;59.754;10.110;2022-10-19T04:13:03;102903.60;;;2.10
65290;BMP180;51893;59.754;10.110;2022-10-19T04:15:34;102908.00;;;2.10
65290;BMP180;51893;59.754;10.110;2022-10-19T04:18:04;102905.40;;;2.10
65290;BMP180;51893;59.754;10.110;2022-10-19T04:20:33;102902.20;;;2.10
65290;BMP180;51893;59.754;10.110;2022-10-19T04:23:02;102905.80;;;2.10
65290;BMP180;51893;59.754;10.110;2022-10-19T04:25:30;102905.80;;;2.10
65290;BMP180;51893;59.754;10.110;2022-10-19T04:27:58;102907.40;;;2.10
65290;BMP180;51893;59.754;10.110;2022-10-19T04:30:26;102907.40;;;2.10
65290;BMP180;51893;59.754;10.110;2022-10-19T04:32:56;102909.60;;;2.20
65290;BMP180;51893;59.754;10.110;2022-10-19T04:35:25;102905.40;;;2.20
65290;BMP180;51893;59.754;10.110;2022-10-19T04:37:58;102906.80;;;2.20
65290;BMP180;51893;59.754;10.110;2022-10-19T04:40:41;102911.80;;;2.24
65290;BMP180;51893;59.754;10.110;2022-10-19T04:43:14;102913.40;;;2.24
65290;BMP180;51893;59.754;10.110;2022-10-19T04:45:42;102913.40;;;2.20
65290;BMP180;51893;59.754;10.110;2022-10-19T04:48:11;102919.40;;;2.20
65290;BMP180;51893;59.754;10.110;2022-10-19T04:50:41;102917.00;;;2.20
65290;BMP180;51893;59.754;10.110;2022-10-19T04:53:09;102922.20;;;2.20
65290;BMP180;51893;59.754;10.110;2022-10-19T04:55:41;102925.60;;;2.18
65290;BMP180;51893;59.754;10.110;2022-10-19T04:58:09;102919.60;;;2.26
65290;BMP180;51893;59.754;10.110;2022-10-19T05:00:39;102926.40;;;2.20
65290;BMP180;51893;59.754;10.110;2022-10-19T05:03:08;102924.80;;;2.10
65290;BMP180;51893;59.754;10.110;2022-10-19T05:05:36;102929.20;;;2.10
65290;BMP180;51893;59.754;10.110;2022-10-19T05:08:04;102927.40;;;2.10
65290;BMP180;51893;59.754;10.110;2022-10-19T05:10:34;102927.20;;;2.10
65290;BMP180;51893;59.754;10.110;2022-10-19T05:13:05;102924.20;;;2.10
65290;BMP180;51893;59.754;10.110;2022-10-19T05:15:33;102923.40;;;2.10
65290;BMP180;51893;59.754;10.110;2022-10-19T05:18:01;102927.40;;;2.10
65290;BMP180;51893;59.754;10.110;2022-10-19T05:20:29;102927.60;;;2.20
65290;BMP180;51893;59.754;10.110;2022-10-19T05:22:59;102926.00;;;2.16
65290;BMP180;51893;59.754;10.110;2022-10-19T05:25:34;102927.20;;;2.00
65290;BMP180;51893;59.754;10.110;2022-10-19T05:28:02;102924.40;;;2.00
65290;BMP180;51893;59.754;10.110;2022-10-19T05:30:31;102923.40;;;2.00
65290;BMP180;51893;59.754;10.110;2022-10-19T05:33:00;102920.20;;;2.00
65290;BMP180;51893;59.754;10.110;2022-10-19T05:35:28;102921.00;;;2.00
65290;BMP180;51893;59.754;10.110;2022-10-19T05:37:56;102917.00;;;2.00
65290;BMP180;51893;59.754;10.110;2022-10-19T05:40:25;102922.00;;;2.00
65290;BMP180;51893;59.754;10.110;2022-10-19T05:42:52;102922.40;;;2.00
65290;BMP180;51893;59.754;10.110;2022-10-19T05:45:24;102931.20;;;2.00
65290;BMP180;51893;59.754;10.110;2022-10-19T05:47:54;102932.60;;;2.00
65290;BMP180;51893;59.754;10.110;2022-10-19T05:50:34;102928.40;;;1.98
65290;BMP180;51893;59.754;10.110;2022-10-19T05:53:02;102925.40;;;2.00
65290;BMP180;51893;59.754;10.110;2022-10-19T05:55:33;102919.40;;;2.00
65290;BMP180;51893;59.754;10.110;2022-10-19T05:58:02;102928.80;;;2.00
65290;BMP180;51893;59.754;10.110;2022-10-19T06:00:34;102930.00;;;2.00
65290;BMP180;51893;59.754;10.110;2022-10-19T06:03:02;102929.80;;;1.96
65290;BMP180;51893;59.754;10.110;2022-10-19T06:05:34;102936.20;;;2.00
65290;BMP180;51893;59.754;10.110;2022-10-19T06:08:04;102933.20;;;2.00
65290;BMP180;51893;59.754;10.110;2022-10-19T06:10:36;102934.80;;;1.92
65290;BMP180;51893;59.754;10.110;2022-10-19T06:13:04;102936.00;;;1.98
65290;BMP180;51893;59.754;10.110;2022-10-19T06:15:34;102932.60;;;1.94
65290;BMP180;51893;59.754;10.110;2022-10-19T06:18:06;102933.00;;;2.00
65290;BMP180;51893;59.754;10.110;2022-10-19T06:20:41;102934.00;;;2.00
65290;BMP180;51893;59.754;10.110;2022-10-19T06:23:09;102939.00;;;1.84
65290;BMP180;51893;59.754;10.110;2022-10-19T06:25:39;102940.00;;;1.70
65290;BMP180;51893;59.754;10.110;2022-10-19T06:28:09;102940.00;;;1.70
65290;BMP180;51893;59.754;10.110;2022-10-19T06:30:41;102945.40;;;1.70
65290;BMP180;51893;59.754;10.110;2022-10-19T06:33:12;102944.20;;;1.70
65290;BMP180;51893;59.754;10.110;2022-10-19T06:35:43;102944.00;;;1.78
65290;BMP180;51893;59.754;10.110;2022-10-19T06:38:11;102949.00;;;1.80
65290;BMP180;51893;59.754;10.110;2022-10-19T06:40:45;102947.60;;;1.90
65290;BMP180;51893;59.754;10.110;2022-10-19T06:43:15;102947.40;;;2.00
65290;BMP180;51893;59.754;10.110;2022-10-19T06:45:44;102950.60;;;2.06
65290;BMP180;51893;59.754;10.110;2022-10-19T06:48:11;102953.00;;;2.06
65290;BMP180;51893;59.754;10.110;2022-10-19T06:50:41;102949.00;;;2.06
65290;BMP180;51893;59.754;10.110;2022-10-19T06:53:16;102951.00;;;2.00
65290;BMP180;51893;59.754;10.110;2022-10-19T06:55:44;102947.20;;;1.80
65290;BMP180;51893;59.754;10.110;2022-10-19T06:58:14;102948.60;;;1.70
65290;BMP180;51893;59.754;10.110;2022-10-19T07:00:42;102945.40;;;1.70
65290;BMP180;51893;59.754;10.110;2022-10-19T07:03:12;102943.00;;;1.70
65290;BMP180;51893;59.754;10.110;2022-10-19T07:06:00;102943.00;;;1.80
65290;BMP180;51893;59.754;10.110;2022-10-19T07:08:33;102938.20;;;1.80
65290;BMP180;51893;59.754;10.110;2022-10-19T07:11:07;102940.80;;;1.80
65290;BMP180;51893;59.754;10.110;2022-10-19T07:13:37;102944.20;;;1.80
65290;BMP180;51893;59.754;10.110;2022-10-19T07:16:09;102944.20;;;1.80
65290;BMP180;51893;59.754;10.110;2022-10-19T07:18:51;102942.40;;;1.82
65290;BMP180;51893;59.754;10.110;2022-10-19T07:21:22;102943.20;;;1.80
65290;BMP180;51893;59.754;10.110;2022-10-19T07:23:50;102950.20;;;1.80
65290;BMP180;51893;59.754;10.110;2022-10-19T07:26:25;102950.80;;;1.80
65290;BMP180;51893;59.754;10.110;2022-10-19T07:28:56;102959.00;;;1.80
65290;BMP180;51893;59.754;10.110;2022-10-19T07:31:27;102949.60;;;1.80
65290;BMP180;51893;59.754;10.110;2022-10-19T07:33:59;102952.40;;;1.80
65290;BMP180;51893;59.754;10.110;2022-10-19T07:36:33;102950.80;;;1.80
65290;BMP180;51893;59.754;10.110;2022-10-19T07:39:05;102955.00;;;1.80
65290;BMP180;51893;59.754;10.110;2022-10-19T07:41:33;102959.60;;;1.70
65290;BMP180;51893;59.754;10.110;2022-10-19T07:44:03;102963.20;;;1.78
65290;BMP180;51893;59.754;10.110;2022-10-19T07:46:41;102961.40;;;1.80
65290;BMP180;51893;59.754;10.110;2022-10-19T07:49:14;102959.00;;;1.80
65290;BMP180;51893;59.754;10.110;2022-10-19T07:51:44;102954.80;;;1.80
65290;BMP180;51893;59.754;10.110;2022-10-19T07:54:13;102958.60;;;1.90
65290;BMP180;51893;59.754;10.110;2022-10-19T07:56:43;102963.60;;;1.90
65290;BMP180;51893;59.754;10.110;2022-10-19T07:59:12;102967.20;;;1.90
65290;BMP180;51893;59.754;10.110;2022-10-19T08:01:41;102962.20;;;2.00
65290;BMP180;51893;59.754;10.110;2022-10-19T08:04:10;102964.60;;;2.00
65290;BMP180;51893;59.754;10.110;2022-10-19T08:07:02;102961.80;;;2.10
65290;BMP180;51893;59.754;10.110;2022-10-19T08:09:29;102956.20;;;2.00
65290;BMP180;51893;59.754;10.110;2022-10-19T08:12:20;102964.60;;;2.00
65290;BMP180;51893;59.754;10.110;2022-10-19T08:14:50;102971.00;;;2.10
65290;BMP180;51893;59.754;10.110;2022-10-19T08:17:19;102975.20;;;2.10
65290;BMP180;51893;59.754;10.110;2022-10-19T08:19:49;102974.80;;;2.08
65290;BMP180;51893;59.754;10.110;2022-10-19T08:22:16;102970.00;;;2.00
65290;BMP180;51893;59.754;10.110;2022-10-19T08:24:50;102975.80;;;2.00
65290;BMP180;51893;59.754;10.110;2022-10-19T08:27:20;102972.80;;;1.98
65290;BMP180;51893;59.754;10.110;2022-10-19T08:29:49;102967.00;;;2.00
65290;BMP180;51893;59.754;10.110;2022-10-19T08:32:19;102972.20;;;2.10
65290;BMP180;51893;59.754;10.110;2022-10-19T08:34:49;102974.40;;;2.10
65290;BMP180;51893;59.754;10.110;2022-10-19T08:37:16;102979.00;;;2.10
65290;BMP180;51893;59.754;10.110;2022-10-19T08:40:23;102979.00;;;2.00
65290;BMP180;51893;59.754;10.110;2022-10-19T08:43:12;102976.60;;;2.08
65290;BMP180;51893;59.754;10.110;2022-10-19T08:48:43;102976.40;;;2.10
65290;BMP180;51893;59.754;10.110;2022-10-19T08:51:13;102975.40;;;2.20
65290;BMP180;51893;59.754;10.110;2022-10-19T08:53:51;102979.40;;;2.18
65290;BMP180;51893;59.754;10.110;2022-10-19T09:02:11;102972.00;;;2.34
65290;BMP180;51893;59.754;10.110;2022-10-19T09:04:59;102970.00;;;2.30
65290;BMP180;51893;59.754;10.110;2022-10-19T09:07:32;102969.00;;;2.40
65290;BMP180;51893;59.754;10.110;2022-10-19T09:12:52;102972.20;;;2.20
65290;BMP180;51893;59.754;10.110;2022-10-19T09:15:36;102971.80;;;2.10
65290;BMP180;51893;59.754;10.110;2022-10-19T09:18:31;102968.60;;;2.10
65290;BMP180;51893;59.754;10.110;2022-10-19T09:21:15;102973.00;;;2.18
65290;BMP180;51893;59.754;10.110;2022-10-19T09:24:29;102967.40;;;2.20
65290;BMP180;51893;59.754;10.110;2022-10-19T09:27:00;102960.40;;;2.20
65290;BMP180;51893;59.754;10.110;2022-10-19T09:29:41;102971.20;;;2.00
65290;BMP180;51893;59.754;10.110;2022-10-19T09:32:21;102966.20;;;1.94
65290;BMP180;51893;59.754;10.110;2022-10-19T09:34:55;102968.20;;;1.90
65290;BMP180;51893;59.754;10.110;2022-10-19T09:37:25;102968.20;;;1.96
65290;BMP180;51893;59.754;10.110;2022-10-19T09:39:55;102969.20;;;2.00
65290;BMP180;51893;59.754;10.110;2022-10-19T09:42:30;102971.00;;;2.02
65290;BMP180;51893;59.754;10.110;2022-10-19T09:45:19;102965.20;;;2.02
65290;BMP180;51893;59.754;10.110;2022-10-19T09:47:53;102965.00;;;2.20
65290;BMP180;51893;59.754;10.110;2022-10-19T09:50:24;102964.60;;;2.20
65290;BMP180;51893;59.754;10.110;2022-10-19T09:53:22;102962.80;;;2.20
65290;BMP180;51893;59.754;10.110;2022-10-19T09:56:07;102960.40;;;2.30
65290;BMP180;51893;59.754;10.110;2022-10-19T09:58:55;102957.20;;;2.40
65290;BMP180;51893;59.754;10.110;2022-10-19T10:01:37;102957.40;;;2.50
65290;BMP180;51893;59.754;10.110;2022-10-19T10:04:19;102961.80;;;2.60
65290;BMP180;51893;59.754;10.110;2022-10-19T10:06:49;102956.40;;;2.70
65290;BMP180;51893;59.754;10.110;2022-10-19T10:09:23;102956.80;;;2.70
65290;BMP180;51893;59.754;10.110;2022-10-19T10:12:03;102954.60;;;2.70
65290;BMP180;51893;59.754;10.110;2022-10-19T10:14:35;102955.80;;;2.80
65290;BMP180;51893;59.754;10.110;2022-10-19T10:17:27;102954.80;;;2.90
65290;BMP180;51893;59.754;10.110;2022-10-19T10:22:32;102945.80;;;3.10
65290;BMP180;51893;59.754;10.110;2022-10-19T10:25:16;102946.00;;;3.20
65290;BMP180;51893;59.754;10.110;2022-10-19T10:28:16;102942.60;;;3.30
65290;BMP180;51893;59.754;10.110;2022-10-19T10:30:52;102941.20;;;3.30
65290;BMP180;51893;59.754;10.110;2022-10-19T10:33:25;102939.20;;;3.30
65290;BMP180;51893;59.754;10.110;2022-10-19T10:36:13;102935.40;;;3.30
65290;BMP180;51893;59.754;10.110;2022-10-19T10:38:50;102933.00;;;3.30
65290;BMP180;51893;59.754;10.110;2022-10-19T10:41:21;102933.00;;;3.34
65290;BMP180;51893;59.754;10.110;2022-10-19T10:44:06;102925.20;;;3.48
65290;BMP180;51893;59.754;10.110;2022-10-19T10:46:56;102925.40;;;3.50
65290;BMP180;51893;59.754;10.110;2022-10-19T10:49:35;102921.40;;;3.50
65290;BMP180;51893;59.754;10.110;2022-10-19T10:52:09;102922.80;;;3.60
65290;BMP180;51893;59.754;10.110;2022-10-19T10:57:42;102917.40;;;3.40
65290;BMP180;51893;59.754;10.110;2022-10-19T11:00:18;102913.00;;;3.38
65290;BMP180;51893;59.754;10.110;2022-10-19T11:05:53;102914.20;;;3.50
65290;BMP180;51893;59.754;10.110;2022-10-19T11:11:40;102904.60;;;3.70
65290;BMP180;51893;59.754;10.110;2022-10-19T11:17:06;102888.80;;;3.84
65290;BMP180;51893;59.754;10.110;2022-10-19T11:19:42;102889.00;;;3.90
65290;BMP180;51893;59.754;10.110;2022-10-19T11:22:45;102888.40;;;3.80
65290;BMP180;51893;59.754;10.110;2022-10-19T11:29:03;102880.40;;;3.70
65290;BMP180;51893;59.754;10.110;2022-10-19T11:31:43;102880.80;;;3.90
65290;BMP180;51893;59.754;10.110;2022-10-19T11:41:37;102873.60;;;3.98
65290;BMP180;51893;59.754;10.110;2022-10-19T11:44:21;102871.20;;;4.04
65290;BMP180;51893;59.754;10.110;2022-10-19T11:49:55;102859.00;;;3.90
65290;BMP180;51893;59.754;10.110;2022-10-19T12:01:32;102848.00;;;4.00
65290;BMP180;51893;59.754;10.110;2022-10-19T12:04:22;102850.40;;;4.00
65290;BMP180;51893;59.754;10.110;2022-10-19T12:13:17;102835.40;;;4.30
65290;BMP180;51893;59.754;10.110;2022-10-19T12:15:51;102839.60;;;4.30
65290;BMP180;51893;59.754;10.110;2022-10-19T12:18:36;102835.60;;;4.30
65290;BMP180;51893;59.754;10.110;2022-10-19T12:21:38;102830.40;;;4.36
65290;BMP180;51893;59.754;10.110;2022-10-19T12:24:17;102826.60;;;4.40
65290;BMP180;51893;59.754;10.110;2022-10-19T12:26:52;102829.00;;;4.30
65290;BMP180;51893;59.754;10.110;2022-10-19T12:29:31;102821.40;;;4.30
65290;BMP180;51893;59.754;10.110;2022-10-19T12:32:06;102818.40;;;4.40
65290;BMP180;51893;59.754;10.110;2022-10-19T12:35:05;102812.80;;;4.50
65290;BMP180;51893;59.754;10.110;2022-10-19T12:37:53;102805.00;;;4.60
65290;BMP180;51893;59.754;10.110;2022-10-19T12:43:18;102801.40;;;4.80
65290;BMP180;51893;59.754;10.110;2022-10-19T12:52:08;102797.60;;;4.70
65290;BMP180;51893;59.754;10.110;2022-10-19T12:54:41;102797.40;;;4.70
65290;BMP180;51893;59.754;10.110;2022-10-19T12:57:28;102794.20;;;4.74
65290;BMP180;51893;59.754;10.110;2022-10-19T13:00:05;102786.20;;;4.70
65290;BMP180;51893;59.754;10.110;2022-10-19T13:05:34;102777.00;;;4.70
65290;BMP180;51893;59.754;10.110;2022-10-19T13:08:05;102779.00;;;4.70
65290;BMP180;51893;59.754;10.110;2022-10-19T13:11:09;102778.80;;;4.72
65290;BMP180;51893;59.754;10.110;2022-10-19T13:14:39;102778.40;;;4.70
65290;BMP180;51893;59.754;10.110;2022-10-19T13:17:04;102776.20;;;4.70
65290;BMP180;51893;59.754;10.110;2022-10-19T13:19:37;102770.60;;;4.70
65290;BMP180;51893;59.754;10.110;2022-10-19T13:22:34;102765.00;;;4.80
65290;BMP180;51893;59.754;10.110;2022-10-19T13:25:39;102770.40;;;4.80
65290;BMP180;51893;59.754;10.110;2022-10-19T13:36:06;102759.00;;;4.80
65290;BMP180;51893;59.754;10.110;2022-10-19T13:41:46;102750.80;;;4.90
65290;BMP180;51893;59.754;10.110;2022-10-19T13:44:22;102748.80;;;4.90
65290;BMP180;51893;59.754;10.110;2022-10-19T13:47:28;102743.00;;;4.94
65290;BMP180;51893;59.754;10.110;2022-10-19T13:50:31;102742.60;;;5.00
65290;BMP180;51893;59.754;10.110;2022-10-19T13:53:46;102737.80;;;5.00
65290;BMP180;51893;59.754;10.110;2022-10-19T14:00:15;102741.20;;;5.00
65290;BMP180;51893;59.754;10.110;2022-10-19T14:11:46;102731.60;;;5.20
65290;BMP180;51893;59.754;10.110;2022-10-19T14:14:21;102731.20;;;5.20
65290;BMP180;51893;59.754;10.110;2022-10-19T14:16:56;102725.80;;;5.20
65290;BMP180;51893;59.754;10.110;2022-10-19T14:19:42;102718.40;;;5.30
65290;BMP180;51893;59.754;10.110;2022-10-19T14:22:36;102714.60;;;5.32
65290;BMP180;51893;59.754;10.110;2022-10-19T14:25:18;102713.40;;;5.34
65290;BMP180;51893;59.754;10.110;2022-10-19T14:27:55;102704.00;;;5.30
65290;BMP180;51893;59.754;10.110;2022-10-19T14:30:35;102699.40;;;5.30
65290;BMP180;51893;59.754;10.110;2022-10-19T14:33:10;102697.20;;;5.20
65290;BMP180;51893;59.754;10.110;2022-10-19T14:35:42;102696.20;;;5.20
65290;BMP180;51893;59.754;10.110;2022-10-19T14:38:28;102698.00;;;5.20
65290;BMP180;51893;59.754;10.110;2022-10-19T14:40:58;102695.80;;;5.20
65290;BMP180;51893;59.754;10.110;2022-10-19T14:43:30;102698.60;;;5.20
65290;BMP180;51893;59.754;10.110;2022-10-19T14:46:10;102701.80;;;5.30
65290;BMP180;51893;59.754;10.110;2022-10-19T14:48:47;102700.80;;;5.40
65290;BMP180;51893;59.754;10.110;2022-10-19T14:51:33;102702.20;;;5.40
65290;BMP180;51893;59.754;10.110;2022-10-19T14:56:53;102699.40;;;5.38
65290;BMP180;51893;59.754;10.110;2022-10-19T14:59:37;102699.00;;;5.30
65290;BMP180;51893;59.754;10.110;2022-10-19T15:02:40;102701.60;;;5.30
65290;BMP180;51893;59.754;10.110;2022-10-19T15:05:23;102696.00;;;5.30
65290;BMP180;51893;59.754;10.110;2022-10-19T15:07:52;102695.80;;;5.30
65290;BMP180;51893;59.754;10.110;2022-10-19T15:10:46;102692.80;;;5.28
65290;BMP180;51893;59.754;10.110;2022-10-19T15:13:41;102696.20;;;5.20
65290;BMP180;51893;59.754;10.110;2022-10-19T15:19:42;102701.20;;;5.20
65290;BMP180;51893;59.754;10.110;2022-10-19T15:22:33;102691.40;;;5.30
65290;BMP180;51893;59.754;10.110;2022-10-19T15:27:43;102696.80;;;5.20
65290;BMP180;51893;59.754;10.110;2022-10-19T15:30:27;102696.40;;;5.08
65290;BMP180;51893;59.754;10.110;2022-10-19T15:35:35;102693.20;;;5.00
65290;BMP180;51893;59.754;10.110;2022-10-19T15:38:20;102696.00;;;5.00
65290;BMP180;51893;59.754;10.110;2022-10-19T15:40:57;102699.00;;;5.00
65290;BMP180;51893;59.754;10.110;2022-10-19T15:43:42;102692.80;;;4.90
65290;BMP180;51893;59.754;10.110;2022-10-19T15:46:27;102693.80;;;4.90
65290;BMP180;51893;59.754;10.110;2022-10-19T15:51:51;102692.00;;;4.70
65290;BMP180;51893;59.754;10.110;2022-10-19T15:54:19;102691.20;;;4.60
65290;BMP180;51893;59.754;10.110;2022-10-19T15:56:51;102686.60;;;4.60
65290;BMP180;51893;59.754;10.110;2022-10-19T15:59:21;102682.00;;;4.60
65290;BMP180;51893;59.754;10.110;2022-10-19T16:01:53;102678.60;;;4.60
65290;BMP180;51893;59.754;10.110;2022-10-19T16:04:23;102676.20;;;4.50
65290;BMP180;51893;59.754;10.110;2022-10-19T16:06:51;102674.60;;;4.50
65290;BMP180;51893;59.754;10.110;2022-10-19T16:09:20;102671.40;;;4.42
65290;BMP180;51893;59.754;10.110;2022-10-19T16:11:51;102672.40;;;4.40
65290;BMP180;51893;59.754;10.110;2022-10-19T16:14:25;102682.40;;;4.40
65290;BMP180;51893;59.754;10.110;2022-10-19T16:17:03;102677.20;;;4.30
65290;BMP180;51893;59.754;10.110;2022-10-19T16:19:32;102680.00;;;4.30
65290;BMP180;51893;59.754;10.110;2022-10-19T16:22:01;102678.80;;;4.24
65290;BMP180;51893;59.754;10.110;2022-10-19T16:24:30;102672.20;;;4.20
65290;BMP180;51893;59.754;10.110;2022-10-19T16:27:00;102671.60;;;4.30
65290;BMP180;51893;59.754;10.110;2022-10-19T16:29:29;102670.60;;;4.30
65290;BMP180;51893;59.754;10.110;2022-10-19T16:31:59;102662.80;;;4.36
65290;BMP180;51893;59.754;10.110;2022-10-19T16:34:27;102659.40;;;4.34
65290;BMP180;51893;59.754;10.110;2022-10-19T16:36:57;102662.80;;;4.32
65290;BMP180;51893;59.754;10.110;2022-10-19T16:39:34;102657.00;;;4.30
65290;BMP180;51893;59.754;10.110;2022-10-19T16:42:04;102660.40;;;4.30
65290;BMP180;51893;59.754;10.110;2022-10-19T16:44:31;102661.20;;;4.30
65290;BMP180;51893;59.754;10.110;2022-10-19T16:46:59;102667.20;;;4.22